Impacts TAF Board INFO
FOR SITUATIONAL AWARENESS. NOT TO BE USED FOR FLIGHT PLANNING PURPOSES.
IDs:

KIAD - Washington/Dulles In, VA, US

Issued at 1135 UTC 18 Jan 2018
Updated at 1352 UTC 18 Jan 2018
Potential Impact None Slight Moderate High
Time1252Z 18/14Z 18/15Z 18/16Z 18/17Z 18/18Z 18/19Z 18/20Z 18/21Z 18/22Z 18/23Z 19/00Z 19/01Z 19/02Z>>
Type OBS PRVL PRVL PRVL PRVL PRVL PRVL PRVL PRVL PRVL PRVL PRVL PRVL PRVL
VIS 10 >6 >6 >6 >6 >6 >6 >6 >6 >6 >6 >6 >6 >6
CIG -- -- -- -- -- -- -- -- -- -- -- -- -- --
Cover FEW FEW FEW FEW FEW FEW FEW FEW FEW SKC SKC SKC SKC SKC
FltCat VFR VFR VFR VFR VFR VFR VFR VFR VFR VFR VFR VFR VFR VFR
WX -- -- -- -- -- -- -- -- -- -- -- -- -- --
WDir 310 320 320 320 320 320 320 320 320 310 310 310 310 310
WSpd 12 12 12 12 12 12 12 12 12 6 6 6 6 6
WGst 20 20 20 20 20 20 20 20 20 -- -- -- -- --

Raw TAF
KIAD 181135Z 1812/1918 32012G20KT P6SM FEW100
  FM182200 31006KT P6SM SKC
  FM191300 25004KT P6SM FEW250


Raw METAR
KIAD 181252Z 31012G20KT 10SM FEW100 M06/M15 A3019 RMK AO2 SLP226 T10561150
KIAD 181152Z 31012G19KT 10SM FEW100 FEW250 M07/M15 A3019 RMK AO2 SLP227 T10671150 11067 21089 53010
KIAD 181052Z 32013KT 10SM FEW100 M07/M15 A3018 RMK AO2 SLP222 T10721150

METAR Board
Radar Display
Forecast Discussion

FOR SITUATIONAL AWARENESS. NOT TO BE USED FOR FLIGHT PLANNING PURPOSES.